sensor_id;sensor_type;location;lat;lon;timestamp;P1;durP1;ratioP1;P2;durP2;ratioP2
64688;SDS011;62504;46.070;14.492;2023-05-10T00:02:02;9.90;;;5.63;;
64688;SDS011;62504;46.070;14.492;2023-05-10T00:04:28;13.03;;;4.87;;
64688;SDS011;62504;46.070;14.492;2023-05-10T00:06:54;9.10;;;5.57;;
64688;SDS011;62504;46.070;14.492;2023-05-10T00:09:19;10.03;;;4.97;;
64688;SDS011;62504;46.070;14.492;2023-05-10T00:11:45;9.03;;;4.40;;
64688;SDS011;62504;46.070;14.492;2023-05-10T00:14:11;8.97;;;4.67;;
64688;SDS011;62504;46.070;14.492;2023-05-10T00:16:36;8.23;;;4.60;;
64688;SDS011;62504;46.070;14.492;2023-05-10T00:19:02;9.37;;;4.63;;
64688;SDS011;62504;46.070;14.492;2023-05-10T00:21:28;11.03;;;4.50;;
64688;SDS011;62504;46.070;14.492;2023-05-10T00:23:53;7.73;;;4.40;;
64688;SDS011;62504;46.070;14.492;2023-05-10T00:26:19;7.27;;;4.17;;
64688;SDS011;62504;46.070;14.492;2023-05-10T00:28:45;7.03;;;4.10;;
64688;SDS011;62504;46.070;14.492;2023-05-10T00:31:11;7.93;;;4.33;;
64688;SDS011;62504;46.070;14.492;2023-05-10T00:33:36;8.23;;;4.87;;
64688;SDS011;62504;46.070;14.492;2023-05-10T00:36:02;7.90;;;4.47;;
64688;SDS011;62504;46.070;14.492;2023-05-10T00:38:28;9.47;;;4.77;;
64688;SDS011;62504;46.070;14.492;2023-05-10T00:40:54;8.13;;;5.00;;
64688;SDS011;62504;46.070;14.492;2023-05-10T00:43:19;7.30;;;4.43;;
64688;SDS011;62504;46.070;14.492;2023-05-10T00:45:45;11.33;;;5.87;;
64688;SDS011;62504;46.070;14.492;2023-05-10T00:48:11;9.10;;;5.43;;
64688;SDS011;62504;46.070;14.492;2023-05-10T00:50:37;9.87;;;4.80;;
64688;SDS011;62504;46.070;14.492;2023-05-10T00:53:03;7.33;;;4.73;;
64688;SDS011;62504;46.070;14.492;2023-05-10T00:55:29;8.07;;;4.53;;
64688;SDS011;62504;46.070;14.492;2023-05-10T00:57:56;13.57;;;5.33;;
64688;SDS011;62504;46.070;14.492;2023-05-10T01:00:21;8.50;;;4.83;;
64688;SDS011;62504;46.070;14.492;2023-05-10T01:02:47;7.67;;;4.83;;
64688;SDS011;62504;46.070;14.492;2023-05-10T01:05:14;10.47;;;5.00;;
64688;SDS011;62504;46.070;14.492;2023-05-10T01:07:40;8.00;;;4.90;;
64688;SDS011;62504;46.070;14.492;2023-05-10T01:10:06;8.60;;;4.57;;
64688;SDS011;62504;46.070;14.492;2023-05-10T01:12:37;7.73;;;4.63;;
64688;SDS011;62504;46.070;14.492;2023-05-10T01:15:06;8.20;;;4.77;;
64688;SDS011;62504;46.070;14.492;2023-05-10T01:17:33;7.83;;;4.90;;
64688;SDS011;62504;46.070;14.492;2023-05-10T01:20:01;8.67;;;4.50;;
64688;SDS011;62504;46.070;14.492;2023-05-10T01:36:49;6.37;;;4.30;;
64688;SDS011;62504;46.070;14.492;2023-05-10T01:39:25;7.13;;;4.90;;
64688;SDS011;62504;46.070;14.492;2023-05-10T01:42:05;7.37;;;4.47;;
64688;SDS011;62504;46.070;14.492;2023-05-10T01:47:41;8.27;;;4.60;;
64688;SDS011;62504;46.070;14.492;2023-05-10T01:50:09;7.20;;;4.43;;
64688;SDS011;62504;46.070;14.492;2023-05-10T01:52:42;6.27;;;4.47;;
64688;SDS011;62504;46.070;14.492;2023-05-10T01:55:11;7.33;;;4.70;;
64688;SDS011;62504;46.070;14.492;2023-05-10T01:57:40;9.80;;;5.00;;
64688;SDS011;62504;46.070;14.492;2023-05-10T02:00:08;6.33;;;4.20;;
64688;SDS011;62504;46.070;14.492;2023-05-10T02:02:37;7.13;;;4.50;;
64688;SDS011;62504;46.070;14.492;2023-05-10T02:05:05;7.20;;;4.50;;
64688;SDS011;62504;46.070;14.492;2023-05-10T02:07:32;10.33;;;4.93;;
64688;SDS011;62504;46.070;14.492;2023-05-10T02:10:01;8.50;;;5.10;;
64688;SDS011;62504;46.070;14.492;2023-05-10T02:12:29;9.63;;;4.83;;
64688;SDS011;62504;46.070;14.492;2023-05-10T02:14:56;8.87;;;5.10;;
64688;SDS011;62504;46.070;14.492;2023-05-10T02:17:24;9.20;;;5.10;;
64688;SDS011;62504;46.070;14.492;2023-05-10T02:19:50;8.30;;;4.83;;
64688;SDS011;62504;46.070;14.492;2023-05-10T02:22:18;9.53;;;4.90;;
64688;SDS011;62504;46.070;14.492;2023-05-10T02:24:44;8.43;;;5.50;;
64688;SDS011;62504;46.070;14.492;2023-05-10T02:27:11;9.73;;;5.60;;
64688;SDS011;62504;46.070;14.492;2023-05-10T02:29:39;9.07;;;5.23;;
64688;SDS011;62504;46.070;14.492;2023-05-10T02:32:06;12.30;;;5.13;;
64688;SDS011;62504;46.070;14.492;2023-05-10T02:34:31;8.73;;;5.10;;
64688;SDS011;62504;46.070;14.492;2023-05-10T02:36:58;8.77;;;5.10;;
64688;SDS011;62504;46.070;14.492;2023-05-10T02:39:24;11.20;;;5.27;;
64688;SDS011;62504;46.070;14.492;2023-05-10T02:41:53;11.43;;;5.50;;
64688;SDS011;62504;46.070;14.492;2023-05-10T02:44:20;8.37;;;4.83;;
64688;SDS011;62504;46.070;14.492;2023-05-10T02:46:48;9.23;;;5.23;;
64688;SDS011;62504;46.070;14.492;2023-05-10T02:49:14;9.10;;;5.73;;
64688;SDS011;62504;46.070;14.492;2023-05-10T02:51:41;9.27;;;5.17;;
64688;SDS011;62504;46.070;14.492;2023-05-10T02:54:15;7.33;;;4.77;;
64688;SDS011;62504;46.070;14.492;2023-05-10T02:56:47;9.60;;;5.13;;
64688;SDS011;62504;46.070;14.492;2023-05-10T02:59:18;9.13;;;5.13;;
64688;SDS011;62504;46.070;14.492;2023-05-10T03:01:44;8.07;;;4.73;;
64688;SDS011;62504;46.070;14.492;2023-05-10T03:04:10;10.90;;;5.20;;
64688;SDS011;62504;46.070;14.492;2023-05-10T03:06:35;8.33;;;5.50;;
64688;SDS011;62504;46.070;14.492;2023-05-10T03:09:01;8.33;;;5.10;;
64688;SDS011;62504;46.070;14.492;2023-05-10T03:16:56;8.53;;;5.60;;
64688;SDS011;62504;46.070;14.492;2023-05-10T03:19:36;7.77;;;5.03;;
64688;SDS011;62504;46.070;14.492;2023-05-10T03:22:10;9.43;;;5.30;;
64688;SDS011;62504;46.070;14.492;2023-05-10T03:24:38;10.70;;;5.20;;
64688;SDS011;62504;46.070;14.492;2023-05-10T03:27:05;10.27;;;5.20;;
64688;SDS011;62504;46.070;14.492;2023-05-10T03:29:33;8.50;;;5.47;;
64688;SDS011;62504;46.070;14.492;2023-05-10T03:31:58;7.80;;;5.33;;
64688;SDS011;62504;46.070;14.492;2023-05-10T03:34:25;8.77;;;5.00;;
64688;SDS011;62504;46.070;14.492;2023-05-10T03:36:51;7.90;;;5.07;;
64688;SDS011;62504;46.070;14.492;2023-05-10T03:39:17;9.83;;;5.60;;
64688;SDS011;62504;46.070;14.492;2023-05-10T03:41:42;8.27;;;5.47;;
64688;SDS011;62504;46.070;14.492;2023-05-10T03:44:08;8.93;;;5.57;;
64688;SDS011;62504;46.070;14.492;2023-05-10T03:46:33;9.83;;;4.93;;
64688;SDS011;62504;46.070;14.492;2023-05-10T03:48:59;8.97;;;5.17;;
64688;SDS011;62504;46.070;14.492;2023-05-10T03:51:25;9.70;;;5.50;;
64688;SDS011;62504;46.070;14.492;2023-05-10T03:53:53;9.93;;;5.27;;
64688;SDS011;62504;46.070;14.492;2023-05-10T03:56:19;8.50;;;5.40;;
64688;SDS011;62504;46.070;14.492;2023-05-10T03:58:45;10.67;;;5.87;;
64688;SDS011;62504;46.070;14.492;2023-05-10T04:01:11;9.30;;;5.13;;
64688;SDS011;62504;46.070;14.492;2023-05-10T04:03:37;9.30;;;5.40;;
64688;SDS011;62504;46.070;14.492;2023-05-10T04:06:03;11.00;;;5.50;;
64688;SDS011;62504;46.070;14.492;2023-05-10T04:08:29;8.23;;;5.03;;
64688;SDS011;62504;46.070;14.492;2023-05-10T04:10:55;9.40;;;5.23;;
64688;SDS011;62504;46.070;14.492;2023-05-10T04:13:31;8.27;;;5.23;;
64688;SDS011;62504;46.070;14.492;2023-05-10T04:15:57;8.43;;;5.93;;
64688;SDS011;62504;46.070;14.492;2023-05-10T04:18:22;10.07;;;5.93;;
64688;SDS011;62504;46.070;14.492;2023-05-10T04:20:48;10.30;;;5.70;;
64688;SDS011;62504;46.070;14.492;2023-05-10T04:23:14;13.57;;;5.43;;
64688;SDS011;62504;46.070;14.492;2023-05-10T04:25:41;9.03;;;5.63;;
64688;SDS011;62504;46.070;14.492;2023-05-10T04:28:07;9.53;;;5.40;;
64688;SDS011;62504;46.070;14.492;2023-05-10T04:30:33;7.67;;;5.10;;
64688;SDS011;62504;46.070;14.492;2023-05-10T04:32:59;10.70;;;6.03;;
64688;SDS011;62504;46.070;14.492;2023-05-10T04:35:26;10.03;;;5.70;;
64688;SDS011;62504;46.070;14.492;2023-05-10T04:37:53;11.87;;;5.60;;
64688;SDS011;62504;46.070;14.492;2023-05-10T04:40:18;9.63;;;5.40;;
64688;SDS011;62504;46.070;14.492;2023-05-10T04:42:45;9.37;;;5.23;;
64688;SDS011;62504;46.070;14.492;2023-05-10T04:45:11;13.97;;;5.77;;
64688;SDS011;62504;46.070;14.492;2023-05-10T04:47:36;11.03;;;5.90;;
64688;SDS011;62504;46.070;14.492;2023-05-10T04:50:02;10.47;;;6.10;;
64688;SDS011;62504;46.070;14.492;2023-05-10T04:52:28;10.70;;;6.13;;
64688;SDS011;62504;46.070;14.492;2023-05-10T04:54:54;8.90;;;5.87;;
64688;SDS011;62504;46.070;14.492;2023-05-10T04:57:19;13.23;;;6.17;;
64688;SDS011;62504;46.070;14.492;2023-05-10T04:59:45;11.37;;;5.80;;
64688;SDS011;62504;46.070;14.492;2023-05-10T05:02:11;147.47;;;51.13;;
64688;SDS011;62504;46.070;14.492;2023-05-10T05:04:36;222.90;;;107.27;;
64688;SDS011;62504;46.070;14.492;2023-05-10T05:07:02;78.70;;;35.63;;
64688;SDS011;62504;46.070;14.492;2023-05-10T05:09:27;22.33;;;13.63;;
64688;SDS011;62504;46.070;14.492;2023-05-10T05:11:53;17.07;;;7.80;;
64688;SDS011;62504;46.070;14.492;2023-05-10T05:14:19;19.97;;;8.07;;
64688;SDS011;62504;46.070;14.492;2023-05-10T05:16:49;13.10;;;7.20;;
64688;SDS011;62504;46.070;14.492;2023-05-10T05:19:18;12.40;;;7.03;;
64688;SDS011;62504;46.070;14.492;2023-05-10T05:21:43;15.00;;;6.87;;
64688;SDS011;62504;46.070;14.492;2023-05-10T05:24:10;11.87;;;6.37;;
64688;SDS011;62504;46.070;14.492;2023-05-10T05:26:37;10.87;;;6.20;;
64688;SDS011;62504;46.070;14.492;2023-05-10T05:29:03;14.83;;;6.70;;
64688;SDS011;62504;46.070;14.492;2023-05-10T05:31:29;12.60;;;6.13;;
64688;SDS011;62504;46.070;14.492;2023-05-10T05:33:54;11.97;;;6.00;;
64688;SDS011;62504;46.070;14.492;2023-05-10T05:36:20;10.17;;;6.27;;
64688;SDS011;62504;46.070;14.492;2023-05-10T05:38:46;16.03;;;7.60;;
64688;SDS011;62504;46.070;14.492;2023-05-10T05:41:12;14.47;;;7.17;;
64688;SDS011;62504;46.070;14.492;2023-05-10T05:43:38;14.00;;;6.63;;
64688;SDS011;62504;46.070;14.492;2023-05-10T05:46:04;16.70;;;7.03;;
64688;SDS011;62504;46.070;14.492;2023-05-10T05:48:30;9.93;;;5.40;;
64688;SDS011;62504;46.070;14.492;2023-05-10T05:50:56;13.73;;;5.10;;
64688;SDS011;62504;46.070;14.492;2023-05-10T05:53:22;31.50;;;17.47;;
64688;SDS011;62504;46.070;14.492;2023-05-10T05:55:52;8.13;;;5.97;;
64688;SDS011;62504;46.070;14.492;2023-05-10T05:58:18;7.70;;;5.50;;
64688;SDS011;62504;46.070;14.492;2023-05-10T06:00:43;6.97;;;4.70;;
64688;SDS011;62504;46.070;14.492;2023-05-10T06:03:09;12.00;;;5.03;;
64688;SDS011;62504;46.070;14.492;2023-05-10T06:05:35;14.30;;;5.97;;
64688;SDS011;62504;46.070;14.492;2023-05-10T06:08:01;15.93;;;6.50;;
64688;SDS011;62504;46.070;14.492;2023-05-10T06:10:26;14.40;;;6.70;;
64688;SDS011;62504;46.070;14.492;2023-05-10T06:12:52;13.13;;;5.80;;
64688;SDS011;62504;46.070;14.492;2023-05-10T06:15:18;11.87;;;5.80;;
64688;SDS011;62504;46.070;14.492;2023-05-10T06:17:43;12.10;;;6.17;;
64688;SDS011;62504;46.070;14.492;2023-05-10T06:20:09;10.27;;;6.13;;
64688;SDS011;62504;46.070;14.492;2023-05-10T06:22:35;13.00;;;5.73;;
64688;SDS011;62504;46.070;14.492;2023-05-10T06:25:01;10.63;;;5.53;;
64688;SDS011;62504;46.070;14.492;2023-05-10T06:27:27;8.93;;;5.20;;
64688;SDS011;62504;46.070;14.492;2023-05-10T06:29:53;8.63;;;5.30;;
64688;SDS011;62504;46.070;14.492;2023-05-10T06:32:19;13.50;;;5.43;;
64688;SDS011;62504;46.070;14.492;2023-05-10T06:34:44;9.43;;;5.37;;
64688;SDS011;62504;46.070;14.492;2023-05-10T06:37:11;8.70;;;5.17;;
64688;SDS011;62504;46.070;14.492;2023-05-10T06:39:36;9.67;;;5.77;;
64688;SDS011;62504;46.070;14.492;2023-05-10T06:42:02;12.90;;;5.00;;
64688;SDS011;62504;46.070;14.492;2023-05-10T06:44:29;12.53;;;5.67;;
64688;SDS011;62504;46.070;14.492;2023-05-10T06:46:55;10.27;;;5.67;;
64688;SDS011;62504;46.070;14.492;2023-05-10T06:49:20;9.60;;;5.83;;
64688;SDS011;62504;46.070;14.492;2023-05-10T06:51:46;13.77;;;6.20;;
64688;SDS011;62504;46.070;14.492;2023-05-10T06:54:12;10.83;;;5.63;;
64688;SDS011;62504;46.070;14.492;2023-05-10T06:56:37;9.17;;;5.90;;
64688;SDS011;62504;46.070;14.492;2023-05-10T06:59:03;10.93;;;5.80;;
64688;SDS011;62504;46.070;14.492;2023-05-10T07:01:28;9.60;;;5.57;;
64688;SDS011;62504;46.070;14.492;2023-05-10T07:03:54;11.43;;;5.30;;
64688;SDS011;62504;46.070;14.492;2023-05-10T07:06:20;10.63;;;5.07;;
64688;SDS011;62504;46.070;14.492;2023-05-10T07:08:45;9.03;;;4.83;;
64688;SDS011;62504;46.070;14.492;2023-05-10T07:11:11;10.37;;;4.97;;
64688;SDS011;62504;46.070;14.492;2023-05-10T07:13:37;8.50;;;5.40;;
64688;SDS011;62504;46.070;14.492;2023-05-10T07:16:04;7.53;;;4.73;;
64688;SDS011;62504;46.070;14.492;2023-05-10T07:18:31;11.87;;;4.80;;
64688;SDS011;62504;46.070;14.492;2023-05-10T07:20:57;6.17;;;4.53;;
64688;SDS011;62504;46.070;14.492;2023-05-10T07:23:22;9.20;;;5.00;;
64688;SDS011;62504;46.070;14.492;2023-05-10T07:25:48;12.40;;;5.23;;
64688;SDS011;62504;46.070;14.492;2023-05-10T07:28:16;13.77;;;5.53;;
64688;SDS011;62504;46.070;14.492;2023-05-10T07:30:42;38.27;;;21.07;;
64688;SDS011;62504;46.070;14.492;2023-05-10T07:33:08;66.60;;;33.30;;
64688;SDS011;62504;46.070;14.492;2023-05-10T07:35:34;60.13;;;30.03;;
64688;SDS011;62504;46.070;14.492;2023-05-10T07:38:00;54.63;;;29.00;;
64688;SDS011;62504;46.070;14.492;2023-05-10T07:40:26;12.53;;;6.37;;
64688;SDS011;62504;46.070;14.492;2023-05-10T07:42:52;10.67;;;6.10;;
64688;SDS011;62504;46.070;14.492;2023-05-10T07:45:18;9.33;;;5.33;;
64688;SDS011;62504;46.070;14.492;2023-05-10T07:47:43;10.43;;;5.67;;
64688;SDS011;62504;46.070;14.492;2023-05-10T07:50:09;13.37;;;5.87;;
64688;SDS011;62504;46.070;14.492;2023-05-10T07:52:35;11.00;;;6.10;;
64688;SDS011;62504;46.070;14.492;2023-05-10T07:55:00;10.10;;;5.53;;
64688;SDS011;62504;46.070;14.492;2023-05-10T07:57:26;9.53;;;5.60;;
64688;SDS011;62504;46.070;14.492;2023-05-10T07:59:52;14.07;;;6.00;;
64688;SDS011;62504;46.070;14.492;2023-05-10T08:02:17;8.77;;;5.80;;
64688;SDS011;62504;46.070;14.492;2023-05-10T08:04:43;9.93;;;5.53;;
64688;SDS011;62504;46.070;14.492;2023-05-10T08:07:08;11.80;;;5.57;;
64688;SDS011;62504;46.070;14.492;2023-05-10T08:09:34;10.57;;;5.70;;
64688;SDS011;62504;46.070;14.492;2023-05-10T08:12:00;14.33;;;5.67;;
64688;SDS011;62504;46.070;14.492;2023-05-10T08:14:27;9.70;;;5.90;;
64688;SDS011;62504;46.070;14.492;2023-05-10T08:16:54;9.23;;;5.30;;
64688;SDS011;62504;46.070;14.492;2023-05-10T08:19:19;16.63;;;6.27;;
64688;SDS011;62504;46.070;14.492;2023-05-10T08:21:46;13.83;;;6.03;;
64688;SDS011;62504;46.070;14.492;2023-05-10T08:24:12;10.20;;;5.97;;
64688;SDS011;62504;46.070;14.492;2023-05-10T08:26:37;12.23;;;5.77;;
64688;SDS011;62504;46.070;14.492;2023-05-10T08:29:03;11.83;;;6.37;;
64688;SDS011;62504;46.070;14.492;2023-05-10T08:31:29;9.83;;;6.23;;
64688;SDS011;62504;46.070;14.492;2023-05-10T08:33:54;11.37;;;6.20;;
64688;SDS011;62504;46.070;14.492;2023-05-10T08:36:20;12.37;;;5.60;;
64688;SDS011;62504;46.070;14.492;2023-05-10T08:38:52;7.87;;;5.17;;
64688;SDS011;62504;46.070;14.492;2023-05-10T08:41:21;11.80;;;5.57;;
64688;SDS011;62504;46.070;14.492;2023-05-10T08:43:49;13.87;;;6.10;;
64688;SDS011;62504;46.070;14.492;2023-05-10T08:46:16;9.80;;;5.40;;
64688;SDS011;62504;46.070;14.492;2023-05-10T08:48:44;7.87;;;5.50;;
64688;SDS011;62504;46.070;14.492;2023-05-10T08:51:14;8.77;;;5.90;;
64688;SDS011;62504;46.070;14.492;2023-05-10T08:53:45;8.20;;;5.13;;
64688;SDS011;62504;46.070;14.492;2023-05-10T08:56:11;8.70;;;5.43;;
64688;SDS011;62504;46.070;14.492;2023-05-10T08:58:37;7.63;;;5.00;;
64688;SDS011;62504;46.070;14.492;2023-05-10T09:01:03;12.43;;;6.27;;
64688;SDS011;62504;46.070;14.492;2023-05-10T09:03:30;12.93;;;6.40;;
64688;SDS011;62504;46.070;14.492;2023-05-10T09:05:57;11.80;;;5.80;;
64688;SDS011;62504;46.070;14.492;2023-05-10T09:08:23;8.63;;;5.90;;
64688;SDS011;62504;46.070;14.492;2023-05-10T09:10:51;7.60;;;5.43;;
64688;SDS011;62504;46.070;14.492;2023-05-10T09:13:17;11.10;;;6.23;;
64688;SDS011;62504;46.070;14.492;2023-05-10T09:15:44;13.37;;;6.40;;
64688;SDS011;62504;46.070;14.492;2023-05-10T09:18:10;13.77;;;6.43;;
64688;SDS011;62504;46.070;14.492;2023-05-10T09:20:36;10.57;;;5.90;;
64688;SDS011;62504;46.070;14.492;2023-05-10T09:23:01;16.23;;;5.90;;
64688;SDS011;62504;46.070;14.492;2023-05-10T09:25:27;10.40;;;5.70;;
64688;SDS011;62504;46.070;14.492;2023-05-10T09:27:53;13.13;;;6.33;;
64688;SDS011;62504;46.070;14.492;2023-05-10T09:30:23;10.00;;;6.60;;
64688;SDS011;62504;46.070;14.492;2023-05-10T09:32:50;11.93;;;5.87;;
64688;SDS011;62504;46.070;14.492;2023-05-10T09:35:20;7.83;;;5.40;;
64688;SDS011;62504;46.070;14.492;2023-05-10T09:37:48;11.20;;;5.80;;
64688;SDS011;62504;46.070;14.492;2023-05-10T09:40:15;8.30;;;5.93;;
64688;SDS011;62504;46.070;14.492;2023-05-10T09:42:51;10.93;;;5.87;;
64688;SDS011;62504;46.070;14.492;2023-05-10T09:45:30;11.73;;;5.70;;
64688;SDS011;62504;46.070;14.492;2023-05-10T09:47:57;9.67;;;5.50;;
64688;SDS011;62504;46.070;14.492;2023-05-10T09:50:24;9.27;;;5.27;;
64688;SDS011;62504;46.070;14.492;2023-05-10T09:55:24;10.63;;;5.80;;
64688;SDS011;62504;46.070;14.492;2023-05-10T09:58:00;14.33;;;5.87;;
64688;SDS011;62504;46.070;14.492;2023-05-10T10:00:26;15.93;;;9.87;;
64688;SDS011;62504;46.070;14.492;2023-05-10T10:02:57;13.20;;;8.37;;
64688;SDS011;62504;46.070;14.492;2023-05-10T10:05:31;12.87;;;7.80;;
64688;SDS011;62504;46.070;14.492;2023-05-10T10:07:57;17.57;;;10.20;;
64688;SDS011;62504;46.070;14.492;2023-05-10T10:10:24;14.00;;;7.97;;
64688;SDS011;62504;46.070;14.492;2023-05-10T10:12:50;11.93;;;7.43;;
64688;SDS011;62504;46.070;14.492;2023-05-10T10:15:17;12.93;;;8.10;;
64688;SDS011;62504;46.070;14.492;2023-05-10T10:17:43;10.33;;;7.07;;
64688;SDS011;62504;46.070;14.492;2023-05-10T10:20:09;11.93;;;7.33;;
64688;SDS011;62504;46.070;14.492;2023-05-10T10:22:36;11.97;;;7.13;;
64688;SDS011;62504;46.070;14.492;2023-05-10T10:25:02;14.13;;;7.90;;
64688;SDS011;62504;46.070;14.492;2023-05-10T10:35:39;12.33;;;8.30;;
64688;SDS011;62504;46.070;14.492;2023-05-10T10:38:07;16.77;;;8.70;;
64688;SDS011;62504;46.070;14.492;2023-05-10T10:40:33;12.57;;;8.33;;
64688;SDS011;62504;46.070;14.492;2023-05-10T10:43:20;12.20;;;8.43;;
64688;SDS011;62504;46.070;14.492;2023-05-10T10:48:46;14.33;;;8.60;;
64688;SDS011;62504;46.070;14.492;2023-05-10T10:51:13;14.67;;;8.40;;
64688;SDS011;62504;46.070;14.492;2023-05-10T10:53:40;13.60;;;8.63;;
64688;SDS011;62504;46.070;14.492;2023-05-10T10:56:10;12.63;;;8.00;;
64688;SDS011;62504;46.070;14.492;2023-05-10T10:58:38;15.67;;;8.90;;
64688;SDS011;62504;46.070;14.492;2023-05-10T11:03:37;11.27;;;8.17;;
64688;SDS011;62504;46.070;14.492;2023-05-10T11:06:02;13.73;;;8.80;;
64688;SDS011;62504;46.070;14.492;2023-05-10T11:08:29;14.40;;;8.90;;
64688;SDS011;62504;46.070;14.492;2023-05-10T11:13:32;16.53;;;9.10;;
64688;SDS011;62504;46.070;14.492;2023-05-10T11:16:09;15.97;;;9.13;;
64688;SDS011;62504;46.070;14.492;2023-05-10T11:18:35;17.10;;;8.60;;
64688;SDS011;62504;46.070;14.492;2023-05-10T11:21:02;16.57;;;10.00;;
64688;SDS011;62504;46.070;14.492;2023-05-10T11:23:49;14.20;;;9.27;;
64688;SDS011;62504;46.070;14.492;2023-05-10T11:26:16;15.73;;;9.87;;
64688;SDS011;62504;46.070;14.492;2023-05-10T11:28:46;12.70;;;9.20;;
64688;SDS011;62504;46.070;14.492;2023-05-10T11:31:13;22.20;;;9.67;;
64688;SDS011;62504;46.070;14.492;2023-05-10T11:33:46;12.87;;;8.33;;
64688;SDS011;62504;46.070;14.492;2023-05-10T11:36:29;17.57;;;9.80;;
64688;SDS011;62504;46.070;14.492;2023-05-10T11:38:58;14.77;;;8.97;;
64688;SDS011;62504;46.070;14.492;2023-05-10T11:41:24;13.80;;;9.37;;
64688;SDS011;62504;46.070;14.492;2023-05-10T11:43:54;19.03;;;9.20;;
64688;SDS011;62504;46.070;14.492;2023-05-10T11:46:21;15.47;;;9.13;;
64688;SDS011;62504;46.070;14.492;2023-05-10T11:48:49;18.57;;;9.30;;
64688;SDS011;62504;46.070;14.492;2023-05-10T11:51:19;18.13;;;9.20;;
64688;SDS011;62504;46.070;14.492;2023-05-10T11:53:46;14.57;;;9.30;;
64688;SDS011;62504;46.070;14.492;2023-05-10T11:56:12;14.83;;;9.27;;
64688;SDS011;62504;46.070;14.492;2023-05-10T11:58:38;15.33;;;8.83;;
64688;SDS011;62504;46.070;14.492;2023-05-10T12:01:05;17.53;;;9.47;;
64688;SDS011;62504;46.070;14.492;2023-05-10T12:03:32;14.00;;;9.27;;
64688;SDS011;62504;46.070;14.492;2023-05-10T12:05:59;14.43;;;9.40;;
64688;SDS011;62504;46.070;14.492;2023-05-10T12:08:26;14.17;;;9.40;;
64688;SDS011;62504;46.070;14.492;2023-05-10T12:10:53;15.60;;;9.40;;
64688;SDS011;62504;46.070;14.492;2023-05-10T12:13:29;13.67;;;9.20;;
64688;SDS011;62504;46.070;14.492;2023-05-10T12:15:57;13.30;;;9.17;;
64688;SDS011;62504;46.070;14.492;2023-05-10T12:18:23;14.63;;;9.13;;
64688;SDS011;62504;46.070;14.492;2023-05-10T12:20:52;17.13;;;10.07;;
64688;SDS011;62504;46.070;14.492;2023-05-10T12:23:21;16.23;;;9.40;;
64688;SDS011;62504;46.070;14.492;2023-05-10T12:25:46;17.67;;;9.83;;
64688;SDS011;62504;46.070;14.492;2023-05-10T12:28:12;14.93;;;9.83;;
64688;SDS011;62504;46.070;14.492;2023-05-10T12:30:38;16.00;;;9.83;;
64688;SDS011;62504;46.070;14.492;2023-05-10T12:33:08;16.17;;;10.03;;
64688;SDS011;62504;46.070;14.492;2023-05-10T12:38:40;15.70;;;9.63;;
64688;SDS011;62504;46.070;14.492;2023-05-10T12:41:15;16.33;;;10.87;;
64688;SDS011;62504;46.070;14.492;2023-05-10T12:43:41;16.47;;;10.67;;
64688;SDS011;62504;46.070;14.492;2023-05-10T12:46:08;19.07;;;11.37;;
64688;SDS011;62504;46.070;14.492;2023-05-10T12:48:34;17.80;;;11.33;;
64688;SDS011;62504;46.070;14.492;2023-05-10T12:51:01;21.27;;;11.17;;
64688;SDS011;62504;46.070;14.492;2023-05-10T12:53:27;15.00;;;10.40;;
64688;SDS011;62504;46.070;14.492;2023-05-10T12:55:53;16.43;;;11.20;;
64688;SDS011;62504;46.070;14.492;2023-05-10T12:58:19;16.00;;;11.13;;
64688;SDS011;62504;46.070;14.492;2023-05-10T13:00:45;15.73;;;10.63;;
64688;SDS011;62504;46.070;14.492;2023-05-10T13:03:10;17.53;;;10.63;;
64688;SDS011;62504;46.070;14.492;2023-05-10T13:05:36;16.27;;;10.57;;
64688;SDS011;62504;46.070;14.492;2023-05-10T13:08:02;16.77;;;10.30;;
64688;SDS011;62504;46.070;14.492;2023-05-10T13:10:31;20.67;;;11.30;;
64688;SDS011;62504;46.070;14.492;2023-05-10T13:12:57;17.90;;;11.67;;
64688;SDS011;62504;46.070;14.492;2023-05-10T13:15:23;19.67;;;11.80;;
64688;SDS011;62504;46.070;14.492;2023-05-10T13:17:50;17.67;;;11.83;;
64688;SDS011;62504;46.070;14.492;2023-05-10T13:20:16;18.70;;;12.10;;
64688;SDS011;62504;46.070;14.492;2023-05-10T13:22:42;18.23;;;11.83;;
64688;SDS011;62504;46.070;14.492;2023-05-10T13:25:09;22.90;;;12.80;;
64688;SDS011;62504;46.070;14.492;2023-05-10T13:27:34;21.87;;;12.40;;
64688;SDS011;62504;46.070;14.492;2023-05-10T13:30:01;18.77;;;12.77;;
64688;SDS011;62504;46.070;14.492;2023-05-10T13:32:28;20.87;;;13.07;;
64688;SDS011;62504;46.070;14.492;2023-05-10T13:34:54;24.07;;;13.13;;
64688;SDS011;62504;46.070;14.492;2023-05-10T13:37:20;22.13;;;12.77;;
64688;SDS011;62504;46.070;14.492;2023-05-10T13:39:46;21.23;;;12.70;;
64688;SDS011;62504;46.070;14.492;2023-05-10T13:42:12;23.60;;;13.17;;
64688;SDS011;62504;46.070;14.492;2023-05-10T13:44:37;19.67;;;13.27;;
64688;SDS011;62504;46.070;14.492;2023-05-10T13:47:03;19.97;;;13.80;;
64688;SDS011;62504;46.070;14.492;2023-05-10T13:49:29;34.50;;;19.37;;
64688;SDS011;62504;46.070;14.492;2023-05-10T13:51:55;205.80;;;97.37;;
64688;SDS011;62504;46.070;14.492;2023-05-10T13:54:20;237.40;;;109.80;;
64688;SDS011;62504;46.070;14.492;2023-05-10T13:56:47;28.03;;;18.27;;
64688;SDS011;62504;46.070;14.492;2023-05-10T13:59:13;23.30;;;14.23;;
64688;SDS011;62504;46.070;14.492;2023-05-10T14:01:39;20.50;;;13.17;;
64688;SDS011;62504;46.070;14.492;2023-05-10T14:04:05;21.37;;;12.90;;
64688;SDS011;62504;46.070;14.492;2023-05-10T14:06:32;23.87;;;14.07;;
64688;SDS011;62504;46.070;14.492;2023-05-10T14:08:58;19.27;;;12.67;;
64688;SDS011;62504;46.070;14.492;2023-05-10T14:11:24;20.07;;;13.20;;
64688;SDS011;62504;46.070;14.492;2023-05-10T14:13:50;21.40;;;14.13;;
64688;SDS011;62504;46.070;14.492;2023-05-10T14:16:15;21.80;;;13.23;;
64688;SDS011;62504;46.070;14.492;2023-05-10T14:18:41;24.53;;;14.13;;
64688;SDS011;62504;46.070;14.492;2023-05-10T14:21:06;20.23;;;13.23;;
64688;SDS011;62504;46.070;14.492;2023-05-10T14:23:32;20.30;;;13.97;;
64688;SDS011;62504;46.070;14.492;2023-05-10T14:25:58;25.93;;;15.13;;
64688;SDS011;62504;46.070;14.492;2023-05-10T14:28:23;25.10;;;14.60;;
64688;SDS011;62504;46.070;14.492;2023-05-10T14:30:50;19.53;;;13.93;;
64688;SDS011;62504;46.070;14.492;2023-05-10T14:33:16;25.80;;;13.27;;
64688;SDS011;62504;46.070;14.492;2023-05-10T14:35:41;22.33;;;13.30;;
64688;SDS011;62504;46.070;14.492;2023-05-10T14:38:07;21.37;;;13.60;;
64688;SDS011;62504;46.070;14.492;2023-05-10T14:40:33;25.23;;;15.40;;
64688;SDS011;62504;46.070;14.492;2023-05-10T14:42:59;22.03;;;13.93;;
64688;SDS011;62504;46.070;14.492;2023-05-10T14:45:25;21.80;;;12.60;;
64688;SDS011;62504;46.070;14.492;2023-05-10T14:47:50;20.40;;;14.03;;
64688;SDS011;62504;46.070;14.492;2023-05-10T14:50:16;19.37;;;13.90;;
64688;SDS011;62504;46.070;14.492;2023-05-10T14:52:43;23.07;;;13.30;;
64688;SDS011;62504;46.070;14.492;2023-05-10T14:55:08;23.47;;;15.00;;
64688;SDS011;62504;46.070;14.492;2023-05-10T14:57:35;21.17;;;13.43;;
64688;SDS011;62504;46.070;14.492;2023-05-10T15:00:01;20.33;;;13.60;;
64688;SDS011;62504;46.070;14.492;2023-05-10T15:02:28;19.23;;;13.17;;
64688;SDS011;62504;46.070;14.492;2023-05-10T15:04:54;22.03;;;13.87;;
64688;SDS011;62504;46.070;14.492;2023-05-10T15:07:19;19.63;;;14.23;;